sensor_id;sensor_type;location;lat;lon;timestamp;P1;durP1;ratioP1;P2;durP2;ratioP2
63688;SDS011;54895;40.928;14.480;2024-01-27T00:01:01;115.57;;;77.13;;
63688;SDS011;54895;40.928;14.480;2024-01-27T00:03:27;117.60;;;76.07;;
63688;SDS011;54895;40.928;14.480;2024-01-27T00:05:53;108.43;;;74.03;;
63688;SDS011;54895;40.928;14.480;2024-01-27T00:08:20;111.50;;;72.20;;
63688;SDS011;54895;40.928;14.480;2024-01-27T00:10:47;102.43;;;70.72;;
63688;SDS011;54895;40.928;14.480;2024-01-27T00:13:13;113.78;;;71.22;;
63688;SDS011;54895;40.928;14.480;2024-01-27T00:15:39;105.78;;;70.22;;
63688;SDS011;54895;40.928;14.480;2024-01-27T00:18:06;109.22;;;72.90;;
63688;SDS011;54895;40.928;14.480;2024-01-27T00:20:32;100.15;;;68.00;;
63688;SDS011;54895;40.928;14.480;2024-01-27T00:22:59;98.78;;;67.13;;
63688;SDS011;54895;40.928;14.480;2024-01-27T00:25:25;103.97;;;68.15;;
63688;SDS011;54895;40.928;14.480;2024-01-27T00:27:51;113.50;;;68.57;;
63688;SDS011;54895;40.928;14.480;2024-01-27T00:30:17;111.30;;;73.75;;
63688;SDS011;54895;40.928;14.480;2024-01-27T00:36:19;103.07;;;68.10;;
63688;SDS011;54895;40.928;14.480;2024-01-27T00:38:46;100.50;;;68.70;;
63688;SDS011;54895;40.928;14.480;2024-01-27T00:41:16;103.93;;;69.30;;
63688;SDS011;54895;40.928;14.480;2024-01-27T00:43:44;101.00;;;68.70;;
63688;SDS011;54895;40.928;14.480;2024-01-27T00:46:10;109.03;;;68.75;;
63688;SDS011;54895;40.928;14.480;2024-01-27T00:48:37;104.03;;;68.90;;
63688;SDS011;54895;40.928;14.480;2024-01-27T00:51:04;109.93;;;74.55;;
63688;SDS011;54895;40.928;14.480;2024-01-27T00:53:31;110.85;;;73.70;;
63688;SDS011;54895;40.928;14.480;2024-01-27T00:55:58;101.75;;;70.53;;
63688;SDS011;54895;40.928;14.480;2024-01-27T00:58:24;110.63;;;72.88;;
63688;SDS011;54895;40.928;14.480;2024-01-27T01:00:51;120.53;;;82.70;;
63688;SDS011;54895;40.928;14.480;2024-01-27T01:03:18;137.70;;;93.72;;
63688;SDS011;54895;40.928;14.480;2024-01-27T01:05:45;138.45;;;94.78;;
63688;SDS011;54895;40.928;14.480;2024-01-27T01:08:12;130.07;;;92.60;;
63688;SDS011;54895;40.928;14.480;2024-01-27T01:10:38;131.23;;;94.95;;
63688;SDS011;54895;40.928;14.480;2024-01-27T01:13:05;137.82;;;95.43;;
63688;SDS011;54895;40.928;14.480;2024-01-27T01:15:32;130.95;;;92.88;;
63688;SDS011;54895;40.928;14.480;2024-01-27T01:17:59;134.95;;;92.80;;
63688;SDS011;54895;40.928;14.480;2024-01-27T01:20:25;130.82;;;88.10;;
63688;SDS011;54895;40.928;14.480;2024-01-27T01:22:53;134.65;;;91.25;;
63688;SDS011;54895;40.928;14.480;2024-01-27T01:25:20;128.00;;;89.93;;
63688;SDS011;54895;40.928;14.480;2024-01-27T01:27:47;117.38;;;81.97;;
63688;SDS011;54895;40.928;14.480;2024-01-27T01:30:16;127.22;;;85.80;;
63688;SDS011;54895;40.928;14.480;2024-01-27T01:36:31;130.55;;;91.50;;
63688;SDS011;54895;40.928;14.480;2024-01-27T01:38:57;133.20;;;91.13;;
63688;SDS011;54895;40.928;14.480;2024-01-27T01:41:24;126.85;;;89.35;;
63688;SDS011;54895;40.928;14.480;2024-01-27T01:43:50;132.52;;;88.97;;
63688;SDS011;54895;40.928;14.480;2024-01-27T01:46:17;130.65;;;92.78;;
63688;SDS011;54895;40.928;14.480;2024-01-27T01:48:44;126.53;;;91.63;;
63688;SDS011;54895;40.928;14.480;2024-01-27T01:51:10;136.82;;;96.15;;
63688;SDS011;54895;40.928;14.480;2024-01-27T01:53:37;134.27;;;94.88;;
63688;SDS011;54895;40.928;14.480;2024-01-27T01:56:04;125.30;;;90.47;;
63688;SDS011;54895;40.928;14.480;2024-01-27T01:58:31;130.48;;;91.03;;
63688;SDS011;54895;40.928;14.480;2024-01-27T02:01:00;126.35;;;90.25;;
63688;SDS011;54895;40.928;14.480;2024-01-27T02:03:26;113.30;;;80.45;;
63688;SDS011;54895;40.928;14.480;2024-01-27T02:05:53;113.95;;;80.65;;
63688;SDS011;54895;40.928;14.480;2024-01-27T02:08:20;119.55;;;85.38;;
63688;SDS011;54895;40.928;14.480;2024-01-27T02:10:47;116.60;;;80.85;;
63688;SDS011;54895;40.928;14.480;2024-01-27T02:13:17;113.57;;;76.38;;
63688;SDS011;54895;40.928;14.480;2024-01-27T02:18:13;109.53;;;70.45;;
63688;SDS011;54895;40.928;14.480;2024-01-27T02:20:40;98.07;;;64.30;;
63688;SDS011;54895;40.928;14.480;2024-01-27T02:23:07;99.50;;;64.38;;
63688;SDS011;54895;40.928;14.480;2024-01-27T02:25:34;90.75;;;61.60;;
63688;SDS011;54895;40.928;14.480;2024-01-27T02:28:01;94.05;;;64.15;;
63688;SDS011;54895;40.928;14.480;2024-01-27T02:30:30;107.22;;;73.80;;
63688;SDS011;54895;40.928;14.480;2024-01-27T02:36:49;105.32;;;69.75;;
63688;SDS011;54895;40.928;14.480;2024-01-27T02:39:16;131.68;;;90.40;;
63688;SDS011;54895;40.928;14.480;2024-01-27T02:41:43;142.25;;;98.85;;
63688;SDS011;54895;40.928;14.480;2024-01-27T02:44:10;136.15;;;94.93;;
63688;SDS011;54895;40.928;14.480;2024-01-27T02:46:37;127.85;;;88.35;;
63688;SDS011;54895;40.928;14.480;2024-01-27T02:49:03;126.50;;;90.05;;
63688;SDS011;54895;40.928;14.480;2024-01-27T02:51:30;127.05;;;87.95;;
63688;SDS011;54895;40.928;14.480;2024-01-27T02:53:57;129.65;;;89.72;;
63688;SDS011;54895;40.928;14.480;2024-01-27T02:56:23;126.80;;;88.20;;
63688;SDS011;54895;40.928;14.480;2024-01-27T02:58:50;125.53;;;84.93;;
63688;SDS011;54895;40.928;14.480;2024-01-27T03:01:17;126.30;;;84.25;;
63688;SDS011;54895;40.928;14.480;2024-01-27T03:03:43;119.75;;;80.80;;
63688;SDS011;54895;40.928;14.480;2024-01-27T03:06:10;123.55;;;82.95;;
63688;SDS011;54895;40.928;14.480;2024-01-27T03:08:37;134.93;;;87.03;;
63688;SDS011;54895;40.928;14.480;2024-01-27T03:11:04;132.05;;;88.75;;
63688;SDS011;54895;40.928;14.480;2024-01-27T03:13:31;122.63;;;82.25;;
63688;SDS011;54895;40.928;14.480;2024-01-27T03:15:57;126.60;;;84.45;;
63688;SDS011;54895;40.928;14.480;2024-01-27T03:18:24;130.48;;;93.43;;
63688;SDS011;54895;40.928;14.480;2024-01-27T03:20:51;127.25;;;87.22;;
63688;SDS011;54895;40.928;14.480;2024-01-27T03:23:18;119.60;;;87.07;;
63688;SDS011;54895;40.928;14.480;2024-01-27T03:25:45;129.82;;;91.95;;
63688;SDS011;54895;40.928;14.480;2024-01-27T03:28:12;130.15;;;88.38;;
63688;SDS011;54895;40.928;14.480;2024-01-27T03:30:39;127.82;;;91.40;;
63688;SDS011;54895;40.928;14.480;2024-01-27T03:39:17;119.70;;;80.47;;
63688;SDS011;54895;40.928;14.480;2024-01-27T03:41:44;131.55;;;94.43;;
63688;SDS011;54895;40.928;14.480;2024-01-27T03:44:12;120.78;;;89.72;;
63688;SDS011;54895;40.928;14.480;2024-01-27T03:46:38;109.82;;;71.22;;
63688;SDS011;54895;40.928;14.480;2024-01-27T03:49:05;102.97;;;65.80;;
63688;SDS011;54895;40.928;14.480;2024-01-27T03:51:32;102.53;;;68.65;;
63688;SDS011;54895;40.928;14.480;2024-01-27T03:53:59;111.53;;;78.20;;
63688;SDS011;54895;40.928;14.480;2024-01-27T03:56:25;118.90;;;84.00;;
63688;SDS011;54895;40.928;14.480;2024-01-27T03:58:53;126.55;;;84.78;;
63688;SDS011;54895;40.928;14.480;2024-01-27T04:01:19;106.47;;;74.15;;
63688;SDS011;54895;40.928;14.480;2024-01-27T04:03:46;91.78;;;64.05;;
63688;SDS011;54895;40.928;14.480;2024-01-27T04:06:13;112.72;;;76.70;;
63688;SDS011;54895;40.928;14.480;2024-01-27T04:08:40;96.93;;;69.63;;
63688;SDS011;54895;40.928;14.480;2024-01-27T04:11:09;99.85;;;68.50;;
63688;SDS011;54895;40.928;14.480;2024-01-27T04:13:46;110.88;;;77.10;;
63688;SDS011;54895;40.928;14.480;2024-01-27T04:16:14;80.97;;;57.88;;
63688;SDS011;54895;40.928;14.480;2024-01-27T04:18:44;82.70;;;56.47;;
63688;SDS011;54895;40.928;14.480;2024-01-27T04:21:11;95.75;;;62.78;;
63688;SDS011;54895;40.928;14.480;2024-01-27T04:23:38;93.13;;;64.63;;
63688;SDS011;54895;40.928;14.480;2024-01-27T04:26:04;92.68;;;62.03;;
63688;SDS011;54895;40.928;14.480;2024-01-27T04:28:32;108.72;;;78.88;;
63688;SDS011;54895;40.928;14.480;2024-01-27T04:30:59;103.85;;;70.68;;
63688;SDS011;54895;40.928;14.480;2024-01-27T04:37:05;117.05;;;80.80;;
63688;SDS011;54895;40.928;14.480;2024-01-27T04:39:32;116.57;;;82.00;;
63688;SDS011;54895;40.928;14.480;2024-01-27T04:41:59;108.35;;;77.18;;
63688;SDS011;54895;40.928;14.480;2024-01-27T04:44:26;110.78;;;78.40;;
63688;SDS011;54895;40.928;14.480;2024-01-27T04:46:53;112.03;;;77.15;;
63688;SDS011;54895;40.928;14.480;2024-01-27T04:49:20;113.40;;;78.70;;
63688;SDS011;54895;40.928;14.480;2024-01-27T04:51:48;120.43;;;81.97;;
63688;SDS011;54895;40.928;14.480;2024-01-27T04:54:15;107.30;;;75.68;;
63688;SDS011;54895;40.928;14.480;2024-01-27T04:56:41;101.18;;;72.47;;
63688;SDS011;54895;40.928;14.480;2024-01-27T04:59:08;104.75;;;76.60;;
63688;SDS011;54895;40.928;14.480;2024-01-27T05:01:35;108.22;;;75.38;;
63688;SDS011;54895;40.928;14.480;2024-01-27T05:04:03;110.03;;;74.30;;
63688;SDS011;54895;40.928;14.480;2024-01-27T05:06:30;97.10;;;68.10;;
63688;SDS011;54895;40.928;14.480;2024-01-27T05:08:57;88.63;;;62.88;;
63688;SDS011;54895;40.928;14.480;2024-01-27T05:11:31;102.93;;;71.03;;
63688;SDS011;54895;40.928;14.480;2024-01-27T05:13:59;94.60;;;66.40;;
63688;SDS011;54895;40.928;14.480;2024-01-27T05:16:27;99.75;;;66.22;;
63688;SDS011;54895;40.928;14.480;2024-01-27T05:18:54;98.07;;;66.22;;
63688;SDS011;54895;40.928;14.480;2024-01-27T05:21:21;107.28;;;71.50;;
63688;SDS011;54895;40.928;14.480;2024-01-27T05:23:48;111.40;;;74.68;;
63688;SDS011;54895;40.928;14.480;2024-01-27T05:26:15;102.80;;;68.65;;
63688;SDS011;54895;40.928;14.480;2024-01-27T05:28:42;105.63;;;78.30;;
63688;SDS011;54895;40.928;14.480;2024-01-27T05:31:09;98.80;;;67.93;;
63688;SDS011;54895;40.928;14.480;2024-01-27T05:33:36;116.38;;;76.07;;
63688;SDS011;54895;40.928;14.480;2024-01-27T05:36:04;118.05;;;81.63;;
63688;SDS011;54895;40.928;14.480;2024-01-27T05:38:31;120.30;;;87.38;;
63688;SDS011;54895;40.928;14.480;2024-01-27T05:41:00;120.30;;;82.40;;
63688;SDS011;54895;40.928;14.480;2024-01-27T05:43:27;116.13;;;74.05;;
63688;SDS011;54895;40.928;14.480;2024-01-27T05:45:54;117.32;;;82.65;;
63688;SDS011;54895;40.928;14.480;2024-01-27T05:48:21;124.80;;;80.18;;
63688;SDS011;54895;40.928;14.480;2024-01-27T05:50:55;102.55;;;71.90;;
63688;SDS011;54895;40.928;14.480;2024-01-27T05:53:26;121.10;;;82.50;;
63688;SDS011;54895;40.928;14.480;2024-01-27T05:55:54;104.75;;;71.85;;
63688;SDS011;54895;40.928;14.480;2024-01-27T05:58:21;108.43;;;74.25;;
63688;SDS011;54895;40.928;14.480;2024-01-27T06:00:49;101.72;;;67.15;;
63688;SDS011;54895;40.928;14.480;2024-01-27T06:03:16;99.20;;;67.57;;
63688;SDS011;54895;40.928;14.480;2024-01-27T06:05:43;97.75;;;71.85;;
63688;SDS011;54895;40.928;14.480;2024-01-27T06:08:10;90.47;;;62.63;;
63688;SDS011;54895;40.928;14.480;2024-01-27T06:10:37;88.10;;;60.83;;
63688;SDS011;54895;40.928;14.480;2024-01-27T06:13:04;117.13;;;81.65;;
63688;SDS011;54895;40.928;14.480;2024-01-27T06:15:31;98.20;;;68.07;;
63688;SDS011;54895;40.928;14.480;2024-01-27T06:17:58;97.05;;;65.07;;
63688;SDS011;54895;40.928;14.480;2024-01-27T06:20:25;101.60;;;69.90;;
63688;SDS011;54895;40.928;14.480;2024-01-27T06:22:52;117.60;;;81.55;;
63688;SDS011;54895;40.928;14.480;2024-01-27T06:25:20;111.28;;;77.20;;
63688;SDS011;54895;40.928;14.480;2024-01-27T06:27:47;111.35;;;75.38;;
63688;SDS011;54895;40.928;14.480;2024-01-27T06:30:14;108.43;;;72.60;;
63688;SDS011;54895;40.928;14.480;2024-01-27T06:32:42;108.72;;;75.88;;
63688;SDS011;54895;40.928;14.480;2024-01-27T06:35:09;125.55;;;93.10;;
63688;SDS011;54895;40.928;14.480;2024-01-27T06:37:36;103.30;;;75.50;;
63688;SDS011;54895;40.928;14.480;2024-01-27T06:40:02;101.85;;;74.55;;
63688;SDS011;54895;40.928;14.480;2024-01-27T06:42:32;99.82;;;75.10;;
63688;SDS011;54895;40.928;14.480;2024-01-27T06:44:59;110.65;;;77.35;;
63688;SDS011;54895;40.928;14.480;2024-01-27T06:47:27;98.38;;;74.50;;
63688;SDS011;54895;40.928;14.480;2024-01-27T06:49:57;102.18;;;73.38;;
63688;SDS011;54895;40.928;14.480;2024-01-27T06:52:24;100.38;;;70.55;;
63688;SDS011;54895;40.928;14.480;2024-01-27T06:54:51;101.53;;;74.28;;
63688;SDS011;54895;40.928;14.480;2024-01-27T06:57:21;93.43;;;69.13;;
63688;SDS011;54895;40.928;14.480;2024-01-27T06:59:49;82.25;;;56.28;;
63688;SDS011;54895;40.928;14.480;2024-01-27T07:02:25;98.70;;;72.70;;
63688;SDS011;54895;40.928;14.480;2024-01-27T07:04:55;97.88;;;65.57;;
63688;SDS011;54895;40.928;14.480;2024-01-27T07:07:23;91.32;;;60.83;;
63688;SDS011;54895;40.928;14.480;2024-01-27T07:09:54;80.00;;;54.25;;
63688;SDS011;54895;40.928;14.480;2024-01-27T07:12:22;79.97;;;55.70;;
63688;SDS011;54895;40.928;14.480;2024-01-27T07:14:49;62.78;;;43.97;;
63688;SDS011;54895;40.928;14.480;2024-01-27T07:17:17;72.60;;;48.92;;
63688;SDS011;54895;40.928;14.480;2024-01-27T07:19:44;60.20;;;43.33;;
63688;SDS011;54895;40.928;14.480;2024-01-27T07:22:10;73.00;;;50.08;;
63688;SDS011;54895;40.928;14.480;2024-01-27T07:24:37;77.10;;;45.85;;
63688;SDS011;54895;40.928;14.480;2024-01-27T07:27:04;64.38;;;45.08;;
63688;SDS011;54895;40.928;14.480;2024-01-27T07:29:31;63.95;;;44.53;;
63688;SDS011;54895;40.928;14.480;2024-01-27T07:31:58;63.92;;;42.50;;
63688;SDS011;54895;40.928;14.480;2024-01-27T07:37:52;67.75;;;44.08;;
63688;SDS011;54895;40.928;14.480;2024-01-27T07:40:19;56.03;;;41.38;;
63688;SDS011;54895;40.928;14.480;2024-01-27T07:42:46;64.45;;;40.72;;
63688;SDS011;54895;40.928;14.480;2024-01-27T07:45:13;59.30;;;40.33;;
63688;SDS011;54895;40.928;14.480;2024-01-27T07:47:40;64.22;;;40.38;;
63688;SDS011;54895;40.928;14.480;2024-01-27T07:50:07;60.55;;;39.00;;
63688;SDS011;54895;40.928;14.480;2024-01-27T07:52:35;65.38;;;44.28;;
63688;SDS011;54895;40.928;14.480;2024-01-27T07:55:02;71.82;;;47.60;;
63688;SDS011;54895;40.928;14.480;2024-01-27T07:57:29;68.88;;;46.65;;
63688;SDS011;54895;40.928;14.480;2024-01-27T07:59:56;68.85;;;47.65;;
63688;SDS011;54895;40.928;14.480;2024-01-27T08:02:23;68.15;;;48.85;;
63688;SDS011;54895;40.928;14.480;2024-01-27T08:04:49;77.47;;;50.50;;
63688;SDS011;54895;40.928;14.480;2024-01-27T08:07:16;79.55;;;51.35;;
63688;SDS011;54895;40.928;14.480;2024-01-27T08:09:43;77.30;;;52.00;;
63688;SDS011;54895;40.928;14.480;2024-01-27T08:12:11;81.95;;;53.92;;
63688;SDS011;54895;40.928;14.480;2024-01-27T08:14:39;81.97;;;53.58;;
63688;SDS011;54895;40.928;14.480;2024-01-27T08:17:05;80.18;;;52.85;;
63688;SDS011;54895;40.928;14.480;2024-01-27T08:19:33;73.10;;;48.90;;
63688;SDS011;54895;40.928;14.480;2024-01-27T08:21:59;65.30;;;44.90;;
63688;SDS011;54895;40.928;14.480;2024-01-27T08:24:26;62.08;;;42.53;;
63688;SDS011;54895;40.928;14.480;2024-01-27T08:26:53;55.10;;;41.38;;
63688;SDS011;54895;40.928;14.480;2024-01-27T08:29:21;61.05;;;40.78;;
63688;SDS011;54895;40.928;14.480;2024-01-27T08:31:47;54.10;;;38.80;;
63688;SDS011;54895;40.928;14.480;2024-01-27T08:37:25;61.75;;;38.20;;
63688;SDS011;54895;40.928;14.480;2024-01-27T08:39:52;54.97;;;37.72;;
63688;SDS011;54895;40.928;14.480;2024-01-27T08:42:20;51.05;;;34.65;;
63688;SDS011;54895;40.928;14.480;2024-01-27T08:44:47;52.05;;;33.78;;
63688;SDS011;54895;40.928;14.480;2024-01-27T08:47:14;48.08;;;31.00;;
63688;SDS011;54895;40.928;14.480;2024-01-27T08:49:41;44.97;;;29.98;;
63688;SDS011;54895;40.928;14.480;2024-01-27T08:52:09;43.13;;;29.40;;
63688;SDS011;54895;40.928;14.480;2024-01-27T08:54:36;46.38;;;28.58;;
63688;SDS011;54895;40.928;14.480;2024-01-27T08:57:03;40.05;;;26.83;;
63688;SDS011;54895;40.928;14.480;2024-01-27T08:59:31;36.70;;;26.63;;
63688;SDS011;54895;40.928;14.480;2024-01-27T09:01:57;40.65;;;27.25;;
63688;SDS011;54895;40.928;14.480;2024-01-27T09:04:24;39.65;;;27.67;;
63688;SDS011;54895;40.928;14.480;2024-01-27T09:06:51;41.42;;;29.30;;
63688;SDS011;54895;40.928;14.480;2024-01-27T09:09:18;42.03;;;29.08;;
63688;SDS011;54895;40.928;14.480;2024-01-27T09:11:45;43.67;;;28.15;;
63688;SDS011;54895;40.928;14.480;2024-01-27T09:14:12;41.50;;;26.38;;
63688;SDS011;54895;40.928;14.480;2024-01-27T09:16:39;37.33;;;25.65;;
63688;SDS011;54895;40.928;14.480;2024-01-27T09:19:06;35.88;;;22.98;;
63688;SDS011;54895;40.928;14.480;2024-01-27T09:21:34;35.80;;;24.75;;
63688;SDS011;54895;40.928;14.480;2024-01-27T09:24:03;39.90;;;26.17;;
63688;SDS011;54895;40.928;14.480;2024-01-27T09:26:31;37.85;;;23.70;;
63688;SDS011;54895;40.928;14.480;2024-01-27T09:28:57;33.67;;;22.42;;
63688;SDS011;54895;40.928;14.480;2024-01-27T09:31:25;35.20;;;22.35;;
63688;SDS011;54895;40.928;14.480;2024-01-27T09:37:41;24.50;;;16.48;;
63688;SDS011;54895;40.928;14.480;2024-01-27T09:40:09;27.25;;;16.85;;
63688;SDS011;54895;40.928;14.480;2024-01-27T09:42:36;21.08;;;14.50;;
63688;SDS011;54895;40.928;14.480;2024-01-27T09:45:05;21.38;;;13.38;;
63688;SDS011;54895;40.928;14.480;2024-01-27T09:47:35;17.40;;;11.30;;
63688;SDS011;54895;40.928;14.480;2024-01-27T09:50:03;15.57;;;9.60;;
63688;SDS011;54895;40.928;14.480;2024-01-27T09:52:29;19.33;;;12.02;;
63688;SDS011;54895;40.928;14.480;2024-01-27T09:54:56;25.27;;;14.20;;
63688;SDS011;54895;40.928;14.480;2024-01-27T09:57:23;26.35;;;14.23;;
63688;SDS011;54895;40.928;14.480;2024-01-27T09:59:50;17.77;;;12.10;;
63688;SDS011;54895;40.928;14.480;2024-01-27T10:02:17;22.83;;;12.20;;
63688;SDS011;54895;40.928;14.480;2024-01-27T10:04:47;29.23;;;13.60;;
63688;SDS011;54895;40.928;14.480;2024-01-27T10:07:14;24.92;;;13.18;;
63688;SDS011;54895;40.928;14.480;2024-01-27T10:09:40;20.52;;;11.00;;
63688;SDS011;54895;40.928;14.480;2024-01-27T10:12:09;19.35;;;10.93;;
63688;SDS011;54895;40.928;14.480;2024-01-27T10:14:39;17.45;;;10.48;;
63688;SDS011;54895;40.928;14.480;2024-01-27T10:17:10;18.80;;;10.90;;
63688;SDS011;54895;40.928;14.480;2024-01-27T10:19:37;26.02;;;13.98;;
63688;SDS011;54895;40.928;14.480;2024-01-27T10:22:04;19.48;;;12.52;;
63688;SDS011;54895;40.928;14.480;2024-01-27T10:24:31;19.50;;;12.25;;
63688;SDS011;54895;40.928;14.480;2024-01-27T10:27:03;21.27;;;11.27;;
63688;SDS011;54895;40.928;14.480;2024-01-27T10:29:30;18.02;;;10.75;;
63688;SDS011;54895;40.928;14.480;2024-01-27T10:32:07;22.17;;;13.30;;
63688;SDS011;54895;40.928;14.480;2024-01-27T10:37:43;18.20;;;11.88;;
63688;SDS011;54895;40.928;14.480;2024-01-27T10:40:09;21.20;;;13.55;;
63688;SDS011;54895;40.928;14.480;2024-01-27T10:42:38;22.35;;;15.25;;
63688;SDS011;54895;40.928;14.480;2024-01-27T10:45:05;24.35;;;14.48;;
63688;SDS011;54895;40.928;14.480;2024-01-27T10:47:32;23.73;;;13.43;;
63688;SDS011;54895;40.928;14.480;2024-01-27T10:50:00;20.77;;;12.65;;
63688;SDS011;54895;40.928;14.480;2024-01-27T10:52:28;19.45;;;13.38;;
63688;SDS011;54895;40.928;14.480;2024-01-27T10:54:58;20.20;;;13.02;;
63688;SDS011;54895;40.928;14.480;2024-01-27T10:57:26;22.35;;;13.75;;
63688;SDS011;54895;40.928;14.480;2024-01-27T10:59:55;21.27;;;14.45;;
63688;SDS011;54895;40.928;14.480;2024-01-27T11:02:23;20.48;;;13.35;;
63688;SDS011;54895;40.928;14.480;2024-01-27T11:04:50;19.25;;;12.48;;
63688;SDS011;54895;40.928;14.480;2024-01-27T11:07:18;20.88;;;12.60;;
63688;SDS011;54895;40.928;14.480;2024-01-27T11:09:47;21.30;;;12.20;;
63688;SDS011;54895;40.928;14.480;2024-01-27T11:12:16;18.55;;;11.07;;
63688;SDS011;54895;40.928;14.480;2024-01-27T11:14:46;17.90;;;10.25;;
63688;SDS011;54895;40.928;14.480;2024-01-27T11:17:13;19.20;;;11.65;;
63688;SDS011;54895;40.928;14.480;2024-01-27T11:19:41;16.90;;;10.88;;
63688;SDS011;54895;40.928;14.480;2024-01-27T11:22:08;18.15;;;11.38;;
63688;SDS011;54895;40.928;14.480;2024-01-27T11:24:52;20.48;;;11.15;;
63688;SDS011;54895;40.928;14.480;2024-01-27T11:27:37;17.33;;;11.88;;
63688;SDS011;54895;40.928;14.480;2024-01-27T11:30:24;19.58;;;12.25;;
63688;SDS011;54895;40.928;14.480;2024-01-27T11:32:56;23.23;;;12.30;;
63688;SDS011;54895;40.928;14.480;2024-01-27T11:38:03;16.85;;;11.68;;
63688;SDS011;54895;40.928;14.480;2024-01-27T11:40:30;20.33;;;12.80;;
63688;SDS011;54895;40.928;14.480;2024-01-27T11:42:59;20.40;;;12.88;;
63688;SDS011;54895;40.928;14.480;2024-01-27T11:45:28;19.17;;;12.50;;
63688;SDS011;54895;40.928;14.480;2024-01-27T11:47:56;19.35;;;11.57;;
63688;SDS011;54895;40.928;14.480;2024-01-27T11:50:23;17.70;;;11.82;;
63688;SDS011;54895;40.928;14.480;2024-01-27T11:52:50;18.33;;;12.95;;
63688;SDS011;54895;40.928;14.480;2024-01-27T11:55:17;18.27;;;11.23;;
63688;SDS011;54895;40.928;14.480;2024-01-27T11:57:45;18.05;;;11.30;;
63688;SDS011;54895;40.928;14.480;2024-01-27T12:00:12;17.95;;;11.80;;
63688;SDS011;54895;40.928;14.480;2024-01-27T12:02:39;18.98;;;10.98;;
63688;SDS011;54895;40.928;14.480;2024-01-27T12:05:06;20.75;;;10.77;;
63688;SDS011;54895;40.928;14.480;2024-01-27T12:07:33;15.55;;;9.57;;
63688;SDS011;54895;40.928;14.480;2024-01-27T12:10:00;17.92;;;11.25;;
63688;SDS011;54895;40.928;14.480;2024-01-27T12:12:26;19.05;;;11.00;;
63688;SDS011;54895;40.928;14.480;2024-01-27T12:14:54;14.75;;;9.27;;
63688;SDS011;54895;40.928;14.480;2024-01-27T12:17:22;10.73;;;7.40;;
63688;SDS011;54895;40.928;14.480;2024-01-27T12:23:01;12.73;;;7.45;;
63688;SDS011;54895;40.928;14.480;2024-01-27T12:25:34;11.60;;;7.60;;
63688;SDS011;54895;40.928;14.480;2024-01-27T12:28:08;10.05;;;7.30;;
63688;SDS011;54895;40.928;14.480;2024-01-27T12:30:49;12.73;;;7.38;;
63688;SDS011;54895;40.928;14.480;2024-01-27T12:33:18;11.00;;;5.95;;
63688;SDS011;54895;40.928;14.480;2024-01-27T12:35:54;12.77;;;7.65;;
63688;SDS011;54895;40.928;14.480;2024-01-27T12:38:25;8.98;;;5.13;;
63688;SDS011;54895;40.928;14.480;2024-01-27T12:40:54;9.52;;;6.03;;
63688;SDS011;54895;40.928;14.480;2024-01-27T12:43:23;9.93;;;7.00;;
63688;SDS011;54895;40.928;14.480;2024-01-27T12:45:51;11.18;;;6.50;;
63688;SDS011;54895;40.928;14.480;2024-01-27T12:49:39;13.48;;;7.45;;
63688;SDS011;54895;40.928;14.480;2024-01-27T12:53:28;10.45;;;7.10;;
63688;SDS011;54895;40.928;14.480;2024-01-27T12:57:31;12.48;;;6.03;;
63688;SDS011;54895;40.928;14.480;2024-01-27T13:01:10;11.85;;;7.68;;
63688;SDS011;54895;40.928;14.480;2024-01-27T13:04:03;11.88;;;7.57;;
63688;SDS011;54895;40.928;14.480;2024-01-27T13:06:43;13.18;;;7.43;;
63688;SDS011;54895;40.928;14.480;2024-01-27T13:09:10;12.23;;;7.97;;
63688;SDS011;54895;40.928;14.480;2024-01-27T13:11:39;11.88;;;7.80;;
63688;SDS011;54895;40.928;14.480;2024-01-27T13:14:06;12.73;;;8.20;;
63688;SDS011;54895;40.928;14.480;2024-01-27T13:16:35;13.98;;;8.38;;
63688;SDS011;54895;40.928;14.480;2024-01-27T13:19:01;11.05;;;7.65;;
63688;SDS011;54895;40.928;14.480;2024-01-27T13:21:28;11.23;;;6.80;;
63688;SDS011;54895;40.928;14.480;2024-01-27T13:23:54;10.80;;;7.28;;
63688;SDS011;54895;40.928;14.480;2024-01-27T13:26:22;13.63;;;8.18;;
63688;SDS011;54895;40.928;14.480;2024-01-27T13:28:49;11.38;;;7.63;;
63688;SDS011;54895;40.928;14.480;2024-01-27T13:31:15;11.20;;;7.07;;
63688;SDS011;54895;40.928;14.480;2024-01-27T13:37:49;12.35;;;7.57;;
63688;SDS011;54895;40.928;14.480;2024-01-27T13:40:16;12.30;;;7.47;;
63688;SDS011;54895;40.928;14.480;2024-01-27T13:42:43;13.95;;;7.93;;
63688;SDS011;54895;40.928;14.480;2024-01-27T13:45:09;10.48;;;6.88;;
63688;SDS011;54895;40.928;14.480;2024-01-27T13:47:37;9.93;;;7.15;;
63688;SDS011;54895;40.928;14.480;2024-01-27T13:50:03;14.27;;;9.38;;
63688;SDS011;54895;40.928;14.480;2024-01-27T13:52:30;15.00;;;8.98;;
63688;SDS011;54895;40.928;14.480;2024-01-27T13:54:57;13.35;;;8.73;;
63688;SDS011;54895;40.928;14.480;2024-01-27T13:57:24;11.73;;;7.40;;
63688;SDS011;54895;40.928;14.480;2024-01-27T13:59:50;18.75;;;11.30;;
63688;SDS011;54895;40.928;14.480;2024-01-27T14:02:16;39.38;;;23.73;;
63688;SDS011;54895;40.928;14.480;2024-01-27T14:04:43;41.15;;;24.17;;
